Time;durP1;ratioP1;P1;durP2;ratioP2;P2;SDS_P1;SDS_P2;PMS_P1;PMS_P2;Temp;Humidity;BMP_temperature;BMP_pressure;BME280_temperature;BME280_humidity;BME280_pressure;Samples;Min_cycle;Max_cycle;Signal;HPM_P1;HPM_P2
2023/05/04 00:01:30;;;;;;;11.60;8.98;;;;;;;;;;5004297;28;20037;-73
2023/05/04 00:03:55;;;;;;;11.75;8.88;;;;;;;;;;5002821;28;20037;-73
2023/05/04 00:06:20;;;;;;;11.02;8.00;;;;;;;;;;5006440;28;20375;-75
2023/05/04 00:08:46;;;;;;;9.02;8.13;;;;;;;;;;5003992;28;20037;-75
2023/05/04 00:11:11;;;;;;;9.05;8.20;;;;;;;;;;5013609;28;20032;-75
2023/05/04 00:13:36;;;;;;;8.75;7.95;;;;;;;;;;5003640;28;20346;-74
2023/05/04 00:16:02;;;;;;;8.55;7.75;;;;;;;;;;5010154;28;20344;-74
2023/05/04 00:18:27;;;;;;;8.63;7.72;;;;;;;;;;5004370;28;20330;-74
2023/05/04 00:20:52;;;;;;;8.93;8.02;;;;;;;;;;5006424;28;20037;-75
2023/05/04 00:23:18;;;;;;;7.85;7.15;;;;;;;;;;5012132;28;20018;-72
2023/05/04 00:25:43;;;;;;;8.65;7.85;;;;;;;;;;5013948;28;20053;-74
2023/05/04 00:28:08;;;;;;;8.68;7.07;;;;;;;;;;5014133;28;20025;-74
2023/05/04 00:30:34;;;;;;;7.15;6.40;;;;;;;;;;5010844;28;20021;-73
2023/05/04 00:32:59;;;;;;;7.78;7.10;;;;;;;;;;5006323;28;20508;-73
2023/05/04 00:35:25;;;;;;;7.80;6.75;;;;;;;;;;5012631;28;20604;-74
2023/05/04 00:37:50;;;;;;;7.07;6.38;;;;;;;;;;5011062;28;20026;-72
2023/05/04 00:40:15;;;;;;;7.00;6.30;;;;;;;;;;5012719;28;20282;-74
2023/05/04 00:42:41;;;;;;;7.40;6.25;;;;;;;;;;5013730;28;20026;-73
2023/05/04 00:45:06;;;;;;;7.97;6.20;;;;;;;;;;5013867;28;20029;-71
2023/05/04 00:47:31;;;;;;;7.07;6.25;;;;;;;;;;5003907;28;20047;-73
2023/05/04 00:49:57;;;;;;;108.32;98.07;;;;;;;;;;5005836;28;20029;-72
2023/05/04 00:52:23;;;;;;;7.70;6.70;;;;;;;;;;5013395;28;20033;-72
2023/05/04 00:54:48;;;;;;;47.63;44.67;;;;;;;;;;5013603;28;20106;-73
2023/05/04 00:57:14;;;;;;;42.97;40.35;;;;;;;;;;5010423;28;20033;-74
2023/05/04 00:59:40;;;;;;;40.80;38.22;;;;;;;;;;5001525;28;20029;-75
2023/05/04 01:02:05;;;;;;;28.73;26.88;;;;;;;;;;5005215;28;20040;-73
2023/05/04 01:04:30;;;;;;;34.20;31.98;;;;;;;;;;5009434;28;20109;-74
2023/05/04 01:06:56;;;;;;;26.92;25.15;;;;;;;;;;5007862;28;20089;-72
2023/05/04 01:09:25;;;;;;;31.00;28.70;;;;;;;;;;5004177;28;20040;-72
2023/05/04 01:11:57;;;;;;;20.15;18.10;;;;;;;;;;5007690;28;20030;-74
2023/05/04 01:14:23;;;;;;;10.57;8.75;;;;;;;;;;5004639;28;20030;-72
2023/05/04 01:16:51;;;;;;;10.07;8.68;;;;;;;;;;5011812;28;20030;-74
2023/05/04 01:19:17;;;;;;;11.27;8.07;;;;;;;;;;5011693;28;20030;-73
2023/05/04 01:21:42;;;;;;;8.50;7.60;;;;;;;;;;5006786;28;20028;-73
2023/05/04 01:24:07;;;;;;;9.75;8.05;;;;;;;;;;5009067;28;20029;-72
2023/05/04 01:26:38;;;;;;;10.48;7.97;;;;;;;;;;5012848;28;20448;-72
2023/05/04 01:29:10;;;;;;;9.40;8.57;;;;;;;;;;4999656;28;20041;-74
2023/05/04 01:31:37;;;;;;;12.68;9.98;;;;;;;;;;5005030;28;20117;-74
2023/05/04 01:34:03;;;;;;;12.95;9.55;;;;;;;;;;5013540;28;20040;-74
2023/05/04 01:36:29;;;;;;;9.48;7.82;;;;;;;;;;5009684;28;20033;-74
2023/05/04 01:38:57;;;;;;;8.95;8.15;;;;;;;;;;5004939;28;20426;-73
2023/05/04 01:41:22;;;;;;;9.65;7.20;;;;;;;;;;5012088;28;20029;-77
2023/05/04 01:43:47;;;;;;;8.88;8.07;;;;;;;;;;5011008;28;20380;-75
2023/05/04 01:46:13;;;;;;;8.50;7.80;;;;;;;;;;5012308;28;20428;-74
2023/05/04 01:48:38;;;;;;;7.78;6.43;;;;;;;;;;5009003;28;20104;-73
2023/05/04 01:51:04;;;;;;;7.82;7.03;;;;;;;;;;5004850;28;20018;-72
2023/05/04 01:53:29;;;;;;;7.53;6.82;;;;;;;;;;5009146;28;20037;-72
2023/05/04 01:55:54;;;;;;;7.22;6.53;;;;;;;;;;5014006;28;20029;-72
2023/05/04 01:58:20;;;;;;;7.80;6.57;;;;;;;;;;5009624;28;20447;-76
2023/05/04 02:00:45;;;;;;;8.48;6.20;;;;;;;;;;5011525;28;20033;-74
2023/05/04 02:03:10;;;;;;;6.63;6.03;;;;;;;;;;5012963;28;20022;-76
2023/05/04 02:05:36;;;;;;;6.85;6.13;;;;;;;;;;5011392;28;20034;-74
2023/05/04 02:08:01;;;;;;;6.05;5.28;;;;;;;;;;5007777;28;20078;-77
2023/05/04 02:10:26;;;;;;;6.18;5.30;;;;;;;;;;4999668;28;20441;-74
2023/05/04 02:12:52;;;;;;;6.07;5.47;;;;;;;;;;5008405;28;20329;-73
2023/05/04 02:15:17;;;;;;;5.70;5.03;;;;;;;;;;5010797;28;20072;-73
2023/05/04 02:17:42;;;;;;;6.72;5.88;;;;;;;;;;5010421;28;20178;-74
2023/05/04 02:20:08;;;;;;;6.00;5.50;;;;;;;;;;5008674;28;20026;-73
2023/05/04 02:22:33;;;;;;;6.20;5.70;;;;;;;;;;5011703;28;20033;-73
2023/05/04 02:24:59;;;;;;;6.32;5.80;;;;;;;;;;5013190;28;20018;-73
2023/05/04 02:27:24;;;;;;;6.90;6.20;;;;;;;;;;5010957;28;20040;-78
2023/05/04 02:29:50;;;;;;;6.20;5.70;;;;;;;;;;5009184;28;20046;-73
2023/05/04 02:32:15;;;;;;;6.03;5.43;;;;;;;;;;5012433;28;20037;-74
2023/05/04 02:34:40;;;;;;;6.50;5.85;;;;;;;;;;5001687;28;20026;-75
2023/05/04 02:37:06;;;;;;;7.45;6.78;;;;;;;;;;5013230;28;20021;-74
2023/05/04 02:39:31;;;;;;;6.68;6.00;;;;;;;;;;5010490;28;20046;-75
2023/05/04 02:41:56;;;;;;;7.18;6.38;;;;;;;;;;5008511;28;20028;-73
2023/05/04 02:44:21;;;;;;;7.65;6.93;;;;;;;;;;5013047;28;20029;-73
2023/05/04 02:46:47;;;;;;;7.25;6.65;;;;;;;;;;5012599;28;20052;-74
2023/05/04 02:49:12;;;;;;;10.63;7.80;;;;;;;;;;5014691;28;20163;-73
2023/05/04 02:51:37;;;;;;;9.18;8.38;;;;;;;;;;5013756;28;20078;-74
2023/05/04 02:54:03;;;;;;;9.90;9.02;;;;;;;;;;5006535;28;20433;-74
2023/05/04 02:56:28;;;;;;;9.77;8.80;;;;;;;;;;5015204;28;20448;-75
2023/05/04 02:58:53;;;;;;;10.73;9.73;;;;;;;;;;5013188;28;20098;-74
2023/05/04 03:01:19;;;;;;;11.57;10.32;;;;;;;;;;5014659;28;20028;-73
2023/05/04 03:03:44;;;;;;;11.95;10.90;;;;;;;;;;5013115;28;20469;-76
2023/05/04 03:06:10;;;;;;;14.05;11.57;;;;;;;;;;5015367;28;20057;-74
2023/05/04 03:08:35;;;;;;;12.38;11.23;;;;;;;;;;5014634;28;20055;-73
2023/05/04 03:11:00;;;;;;;15.85;12.25;;;;;;;;;;5012651;28;20034;-72
2023/05/04 03:13:26;;;;;;;12.40;11.30;;;;;;;;;;5004525;28;20082;-73
2023/05/04 03:15:51;;;;;;;16.25;11.55;;;;;;;;;;5013150;28;20046;-72
2023/05/04 03:18:16;;;;;;;13.88;12.55;;;;;;;;;;5014284;28;20514;-73
2023/05/04 03:20:42;;;;;;;14.48;12.65;;;;;;;;;;5015665;28;20472;-73
2023/05/04 03:23:07;;;;;;;14.02;12.55;;;;;;;;;;5004918;28;20063;-73
2023/05/04 03:25:32;;;;;;;13.60;12.18;;;;;;;;;;5014593;28;20093;-74
2023/05/04 03:27:58;;;;;;;15.65;12.32;;;;;;;;;;5012599;28;20469;-74
2023/05/04 03:30:23;;;;;;;12.45;11.25;;;;;;;;;;5016587;28;20057;-74
2023/05/04 03:32:48;;;;;;;12.20;11.10;;;;;;;;;;5011266;28;20061;-74
2023/05/04 03:35:14;;;;;;;13.55;12.15;;;;;;;;;;5013628;28;20118;-73
2023/05/04 03:37:39;;;;;;;13.23;11.77;;;;;;;;;;5013990;28;20038;-75
2023/05/04 03:40:05;;;;;;;13.48;12.07;;;;;;;;;;5012722;28;20037;-71
2023/05/04 03:42:30;;;;;;;14.15;12.68;;;;;;;;;;5006233;28;20404;-72
2023/05/04 03:44:56;;;;;;;14.07;11.52;;;;;;;;;;5011508;28;20029;-72
2023/05/04 03:47:21;;;;;;;14.52;13.00;;;;;;;;;;5011865;28;20431;-72
2023/05/04 03:49:46;;;;;;;15.10;13.63;;;;;;;;;;5013017;28;21027;-76
2023/05/04 03:52:12;;;;;;;14.38;13.00;;;;;;;;;;5014846;28;20041;-73
2023/05/04 03:54:37;;;;;;;17.80;12.82;;;;;;;;;;5011496;28;20351;-76
2023/05/04 03:57:03;;;;;;;13.90;12.50;;;;;;;;;;5009119;28;20050;-75
2023/05/04 03:59:29;;;;;;;14.45;12.98;;;;;;;;;;4997686;28;20029;-73
2023/05/04 04:01:54;;;;;;;15.65;14.32;;;;;;;;;;4996499;28;20110;-73
2023/05/04 04:04:19;;;;;;;15.30;13.50;;;;;;;;;;5001390;28;20356;-73
2023/05/04 04:06:45;;;;;;;14.30;12.85;;;;;;;;;;4997073;28;20057;-73
2023/05/04 04:09:10;;;;;;;16.17;14.50;;;;;;;;;;5002175;28;20030;-74
2023/05/04 04:11:36;;;;;;;18.75;14.52;;;;;;;;;;5000161;28;20037;-74
2023/05/04 04:14:01;;;;;;;16.75;14.80;;;;;;;;;;5001943;28;20471;-76
2023/05/04 04:16:26;;;;;;;16.17;14.57;;;;;;;;;;5010409;28;20030;-76
2023/05/04 04:18:52;;;;;;;16.95;15.45;;;;;;;;;;5013099;28;20040;-73
2023/05/04 04:21:17;;;;;;;15.48;13.90;;;;;;;;;;5012320;28;20025;-73
2023/05/04 04:23:42;;;;;;;16.38;14.85;;;;;;;;;;5013776;28;20034;-72
2023/05/04 04:26:08;;;;;;;17.15;15.23;;;;;;;;;;5013030;28;20072;-74
2023/05/04 04:28:33;;;;;;;17.60;15.90;;;;;;;;;;5011959;28;20348;-73
2023/05/04 04:30:59;;;;;;;17.77;16.02;;;;;;;;;;5012204;28;20052;-72
2023/05/04 04:33:24;;;;;;;17.88;16.20;;;;;;;;;;5012688;28;20065;-75
2023/05/04 04:35:50;;;;;;;19.73;17.65;;;;;;;;;;5012841;28;20026;-73
2023/05/04 04:38:16;;;;;;;19.52;17.52;;;;;;;;;;5010525;28;21146;-73
2023/05/04 04:40:41;;;;;;;18.70;17.00;;;;;;;;;;5015047;28;20068;-73
2023/05/04 04:43:07;;;;;;;17.08;15.30;;;;;;;;;;5012322;28;20030;-72
2023/05/04 04:45:32;;;;;;;15.00;13.50;;;;;;;;;;5014776;28;20029;-73
2023/05/04 04:47:58;;;;;;;18.80;15.50;;;;;;;;;;5008941;28;20045;-73
2023/05/04 04:50:23;;;;;;;17.67;15.63;;;;;;;;;;5004474;28;20053;-77
2023/05/04 04:52:49;;;;;;;16.25;14.40;;;;;;;;;;5011546;28;20336;-73
2023/05/04 04:55:16;;;;;;;23.20;15.43;;;;;;;;;;5013163;28;20029;-72
2023/05/04 04:57:41;;;;;;;15.70;14.20;;;;;;;;;;5010739;28;20087;-71
2023/05/04 05:00:08;;;;;;;16.10;13.90;;;;;;;;;;5011670;28;20072;-72
2023/05/04 05:02:34;;;;;;;15.82;14.15;;;;;;;;;;5010898;28;20164;-72
2023/05/04 05:04:59;;;;;;;16.17;14.65;;;;;;;;;;5011059;28;20101;-76
2023/05/04 05:07:24;;;;;;;15.40;13.90;;;;;;;;;;5009669;28;20037;-74
2023/05/04 05:09:50;;;;;;;15.48;13.68;;;;;;;;;;5008575;28;20034;-73
2023/05/04 05:12:15;;;;;;;16.42;14.18;;;;;;;;;;5009156;28;20121;-72
2023/05/04 05:14:41;;;;;;;17.50;15.23;;;;;;;;;;5001214;28;20033;-73
2023/05/04 05:17:07;;;;;;;14.80;13.50;;;;;;;;;;5008777;28;20045;-72
2023/05/04 05:19:35;;;;;;;16.05;14.52;;;;;;;;;;5004949;28;20073;-72
2023/05/04 05:22:01;;;;;;;15.07;13.63;;;;;;;;;;5010172;28;20029;-72
2023/05/04 05:24:27;;;;;;;14.63;13.25;;;;;;;;;;5000843;28;20029;-73
2023/05/04 05:26:52;;;;;;;14.90;13.35;;;;;;;;;;5001904;28;20073;-72
2023/05/04 05:29:17;;;;;;;13.73;12.18;;;;;;;;;;5007519;28;20050;-73
2023/05/04 05:31:43;;;;;;;13.48;12.27;;;;;;;;;;5007268;28;20090;-71
2023/05/04 05:34:08;;;;;;;13.32;12.13;;;;;;;;;;5013391;28;20033;-72
2023/05/04 05:36:33;;;;;;;14.02;12.65;;;;;;;;;;5011151;28;20069;-74
2023/05/04 05:38:59;;;;;;;14.90;13.50;;;;;;;;;;5011286;28;20474;-73
2023/05/04 05:41:24;;;;;;;16.25;13.27;;;;;;;;;;4999720;28;20030;-73
2023/05/04 05:43:50;;;;;;;13.82;12.57;;;;;;;;;;5001223;28;20038;-71
2023/05/04 05:46:17;;;;;;;13.55;12.35;;;;;;;;;;5010471;28;20098;-70
2023/05/04 05:48:42;;;;;;;14.80;13.40;;;;;;;;;;5012890;28;20041;-71
2023/05/04 05:51:07;;;;;;;15.73;14.23;;;;;;;;;;5008705;28;20373;-75
2023/05/04 05:53:33;;;;;;;15.57;13.95;;;;;;;;;;5011617;28;20349;-71
2023/05/04 05:55:58;;;;;;;15.18;13.82;;;;;;;;;;5011472;28;20366;-71
2023/05/04 05:58:23;;;;;;;16.52;14.30;;;;;;;;;;5014375;28;20145;-74
2023/05/04 06:00:49;;;;;;;16.25;14.70;;;;;;;;;;5009175;28;20021;-72
2023/05/04 06:03:14;;;;;;;15.25;13.77;;;;;;;;;;5010279;28;20029;-74
2023/05/04 06:05:40;;;;;;;14.85;13.45;;;;;;;;;;5007513;28;20029;-74
2023/05/04 06:08:05;;;;;;;18.95;13.57;;;;;;;;;;5010317;28;20056;-70
2023/05/04 06:10:31;;;;;;;15.45;13.88;;;;;;;;;;5010490;28;20104;-71
2023/05/04 06:12:56;;;;;;;15.15;13.65;;;;;;;;;;5008639;28;20093;-72
2023/05/04 06:15:21;;;;;;;15.10;13.70;;;;;;;;;;5009943;28;20040;-71
2023/05/04 06:17:48;;;;;;;15.13;13.73;;;;;;;;;;5012081;28;20491;-71
2023/05/04 06:20:14;;;;;;;15.50;13.25;;;;;;;;;;5011938;28;20035;-72
2023/05/04 06:22:39;;;;;;;15.40;13.75;;;;;;;;;;5015214;28;20026;-71
2023/05/04 06:25:05;;;;;;;13.80;12.65;;;;;;;;;;5013851;28;20098;-71
2023/05/04 06:27:31;;;;;;;17.00;14.40;;;;;;;;;;5013217;28;20150;-71
2023/05/04 06:29:57;;;;;;;18.15;16.42;;;;;;;;;;5015706;28;20052;-71
2023/05/04 06:32:22;;;;;;;15.55;14.00;;;;;;;;;;5015474;28;20018;-75
2023/05/04 06:34:51;;;;;;;58.20;45.10;;;;;;;;;;5012391;28;20343;-73
2023/05/04 06:37:16;;;;;;;18.92;17.10;;;;;;;;;;5014476;28;20070;-71
2023/05/04 06:39:41;;;;;;;15.52;13.70;;;;;;;;;;5012914;28;20014;-70
2023/05/04 06:42:07;;;;;;;15.35;13.85;;;;;;;;;;5012058;28;20036;-71
2023/05/04 06:44:33;;;;;;;17.63;15.85;;;;;;;;;;5013441;28;20030;-76
2023/05/04 06:46:58;;;;;;;16.17;14.50;;;;;;;;;;5011077;28;20040;-74
2023/05/04 06:49:24;;;;;;;17.70;15.80;;;;;;;;;;5011964;28;20029;-71
2023/05/04 06:51:49;;;;;;;22.45;20.10;;;;;;;;;;5012056;28;20306;-74
2023/05/04 06:54:14;;;;;;;18.33;16.52;;;;;;;;;;5013126;28;20022;-72
2023/05/04 06:56:40;;;;;;;17.50;15.65;;;;;;;;;;5014636;28;20078;-72
2023/05/04 06:59:05;;;;;;;16.90;15.38;;;;;;;;;;5014603;28;20039;-71
2023/05/04 07:01:31;;;;;;;18.60;15.45;;;;;;;;;;5013539;28;20511;-72
2023/05/04 07:03:57;;;;;;;16.75;15.25;;;;;;;;;;5013837;28;20530;-75
2023/05/04 07:06:25;;;;;;;16.65;14.98;;;;;;;;;;5013947;28;20124;-73
2023/05/04 07:08:50;;;;;;;16.92;15.02;;;;;;;;;;5016081;28;20029;-75
2023/05/04 07:11:16;;;;;;;16.23;14.52;;;;;;;;;;5014025;28;20018;-71
2023/05/04 07:13:41;;;;;;;15.60;14.00;;;;;;;;;;5015774;28;20044;-71
2023/05/04 07:16:07;;;;;;;16.83;15.23;;;;;;;;;;5013487;28;20090;-72
2023/05/04 07:18:33;;;;;;;16.17;14.68;;;;;;;;;;5012126;28;20025;-72
2023/05/04 07:20:58;;;;;;;18.67;15.75;;;;;;;;;;5014452;28;20543;-75
2023/05/04 07:23:23;;;;;;;15.63;14.23;;;;;;;;;;5014248;28;20057;-72
2023/05/04 07:25:49;;;;;;;17.85;16.15;;;;;;;;;;5012203;28;20030;-75
2023/05/04 07:28:15;;;;;;;18.83;16.95;;;;;;;;;;5011346;28;20148;-71
2023/05/04 07:30:40;;;;;;;17.17;15.50;;;;;;;;;;5014278;28;20054;-71
2023/05/04 07:33:06;;;;;;;18.48;16.60;;;;;;;;;;5009813;28;20289;-71
2023/05/04 07:35:31;;;;;;;16.75;15.18;;;;;;;;;;5011321;28;20033;-75
2023/05/04 07:37:56;;;;;;;20.10;16.67;;;;;;;;;;5014823;28;20086;-73
2023/05/04 07:40:22;;;;;;;18.95;17.00;;;;;;;;;;5014911;28;20040;-73
2023/05/04 07:42:47;;;;;;;17.40;15.77;;;;;;;;;;5010294;28;20032;-77
2023/05/04 07:45:15;;;;;;;15.20;13.80;;;;;;;;;;5014068;28;20044;-74
2023/05/04 07:47:40;;;;;;;16.45;14.85;;;;;;;;;;5015059;28;20033;-75
2023/05/04 07:50:06;;;;;;;15.38;13.80;;;;;;;;;;5013493;28;20037;-73
2023/05/04 07:52:31;;;;;;;14.82;13.32;;;;;;;;;;5011560;28;20086;-75
2023/05/04 07:54:57;;;;;;;16.30;14.73;;;;;;;;;;5013206;28;20038;-73
2023/05/04 07:57:22;;;;;;;16.02;14.35;;;;;;;;;;5014108;28;20056;-73
2023/05/04 07:59:47;;;;;;;17.23;15.68;;;;;;;;;;5013138;28;20086;-73
2023/05/04 08:02:13;;;;;;;18.60;16.70;;;;;;;;;;5014763;28;20441;-71
2023/05/04 08:04:38;;;;;;;17.88;16.02;;;;;;;;;;5012020;28;20340;-72
2023/05/04 08:07:03;;;;;;;17.77;15.38;;;;;;;;;;5013239;28;20075;-71
2023/05/04 08:09:29;;;;;;;17.42;14.90;;;;;;;;;;5012059;28;20061;-71
2023/05/04 08:11:54;;;;;;;17.00;15.27;;;;;;;;;;5014946;28;20045;-74
2023/05/04 08:14:20;;;;;;;17.27;15.45;;;;;;;;;;5014444;28;20125;-72
2023/05/04 08:16:46;;;;;;;16.38;14.73;;;;;;;;;;5010516;28;20037;-75
2023/05/04 08:19:11;;;;;;;16.33;14.55;;;;;;;;;;5013817;28;20018;-73
2023/05/04 08:21:39;;;;;;;16.88;15.27;;;;;;;;;;5011231;28;20090;-71
2023/05/04 08:24:04;;;;;;;16.13;14.05;;;;;;;;;;5013025;28;20118;-75
2023/05/04 08:26:29;;;;;;;14.60;13.15;;;;;;;;;;5010777;28;20404;-71
2023/05/04 08:29:04;;;;;;;16.67;14.93;;;;;;;;;;5012345;28;20060;-72
2023/05/04 08:31:29;;;;;;;15.02;13.55;;;;;;;;;;5013399;28;20036;-70
2023/05/04 08:33:55;;;;;;;16.25;14.50;;;;;;;;;;5010433;28;20022;-71
2023/05/04 08:36:20;;;;;;;15.18;13.88;;;;;;;;;;5014986;28;20033;-71
2023/05/04 08:38:46;;;;;;;16.75;14.63;;;;;;;;;;5014504;28;20033;-77
2023/05/04 08:41:11;;;;;;;16.75;15.07;;;;;;;;;;5010620;28;20026;-74
2023/05/04 08:43:37;;;;;;;15.82;14.32;;;;;;;;;;5012282;28;20031;-71
2023/05/04 08:46:03;;;;;;;16.00;14.32;;;;;;;;;;5013008;28;20030;-73
2023/05/04 08:48:30;;;;;;;15.55;13.95;;;;;;;;;;5013560;28;20030;-71
2023/05/04 08:50:56;;;;;;;15.95;14.55;;;;;;;;;;5012337;28;20050;-72
2023/05/04 08:53:22;;;;;;;15.82;14.13;;;;;;;;;;5013908;28;20114;-71
2023/05/04 08:55:48;;;;;;;14.98;13.43;;;;;;;;;;5011849;28;20029;-73
2023/05/04 08:58:16;;;;;;;15.93;14.20;;;;;;;;;;5012769;28;20022;-70
2023/05/04 09:00:42;;;;;;;14.70;13.30;;;;;;;;;;5012067;28;20021;-75
2023/05/04 09:03:11;;;;;;;14.50;13.20;;;;;;;;;;5007927;28;20029;-71
2023/05/04 09:05:37;;;;;;;15.32;13.90;;;;;;;;;;5014241;28;20025;-71
2023/05/04 09:08:02;;;;;;;15.60;14.15;;;;;;;;;;5011258;28;20053;-75
2023/05/04 09:10:28;;;;;;;15.88;14.27;;;;;;;;;;5010804;28;20029;-71
2023/05/04 09:12:54;;;;;;;15.38;13.90;;;;;;;;;;5013711;28;20105;-75
2023/05/04 09:15:20;;;;;;;15.55;13.77;;;;;;;;;;5010178;28;20064;-72
2023/05/04 09:18:01;;;;;;;17.92;16.23;;;;;;;;;;5012145;28;20042;-71
2023/05/04 09:20:26;;;;;;;18.38;16.35;;;;;;;;;;5011363;28;20028;-71
2023/05/04 09:22:59;;;;;;;19.23;17.20;;;;;;;;;;5011558;28;20037;-70
2023/05/04 09:25:24;;;;;;;22.48;18.70;;;;;;;;;;5011160;28;20029;-69
2023/05/04 09:27:56;;;;;;;29.73;26.73;;;;;;;;;;5015215;28;20045;-71
2023/05/04 09:30:21;;;;;;;22.45;18.48;;;;;;;;;;5011666;28;20042;-72
2023/05/04 09:32:47;;;;;;;16.60;15.15;;;;;;;;;;5010820;28;20036;-71
2023/05/04 09:35:13;;;;;;;25.85;22.48;;;;;;;;;;5011360;28;20156;-70
2023/05/04 10:42:24;;;;;;;15.10;13.75;;;;;;;;;;5072749;28;20646;-71
2023/05/04 10:44:53;;;;;;;17.08;15.38;;;;;;;;;;5051446;28;20124;-71
2023/05/04 10:47:32;;;;;;;17.77;15.77;;;;;;;;;;5049410;28;20078;-74
2023/05/04 10:50:01;;;;;;;18.45;16.38;;;;;;;;;;5041296;28;20048;-72
2023/05/04 10:52:26;;;;;;;21.83;18.98;;;;;;;;;;5045248;28;20475;-71
2023/05/04 10:54:59;;;;;;;20.48;18.35;;;;;;;;;;5042909;28;20031;-74
2023/05/04 10:57:27;;;;;;;17.45;13.43;;;;;;;;;;5043620;28;20411;-72
2023/05/04 10:59:56;;;;;;;14.75;12.32;;;;;;;;;;5041590;28;20075;-71
2023/05/04 11:02:25;;;;;;;14.80;13.40;;;;;;;;;;5043904;28;20524;-77
2023/05/04 11:05:00;;;;;;;17.52;15.50;;;;;;;;;;5044522;28;20462;-72
2023/05/04 11:07:38;;;;;;;14.45;13.15;;;;;;;;;;5026921;28;20377;-71
2023/05/04 11:10:08;;;;;;;14.52;13.02;;;;;;;;;;5032459;28;20033;-71
2023/05/04 11:12:34;;;;;;;14.02;12.63;;;;;;;;;;5040400;28;20119;-72
2023/05/04 11:15:06;;;;;;;14.82;13.32;;;;;;;;;;5039704;28;20029;-71
2023/05/04 11:17:32;;;;;;;14.77;12.52;;;;;;;;;;5041282;28;20124;-71
2023/05/04 11:19:57;;;;;;;12.95;11.63;;;;;;;;;;5046875;28;20113;-72
2023/05/04 11:22:22;;;;;;;12.80;11.10;;;;;;;;;;5042457;28;20021;-71
2023/05/04 11:24:48;;;;;;;11.65;10.55;;;;;;;;;;5048259;28;20029;-71
2023/05/04 11:27:27;;;;;;;12.30;11.20;;;;;;;;;;5044949;28;20481;-71
2023/05/04 11:30:02;;;;;;;13.70;12.38;;;;;;;;;;5042215;28;21233;-70
2023/05/04 11:32:34;;;;;;;17.80;15.90;;;;;;;;;;5041495;28;20045;-71
2023/05/04 11:35:00;;;;;;;15.80;13.65;;;;;;;;;;5041196;28;20029;-70
2023/05/04 11:37:27;;;;;;;14.93;13.32;;;;;;;;;;5041324;28;20044;-71
2023/05/04 11:39:53;;;;;;;14.13;12.63;;;;;;;;;;5044748;28;20730;-71
2023/05/04 11:42:19;;;;;;;16.67;13.13;;;;;;;;;;5039146;28;20044;-73
2023/05/04 11:44:44;;;;;;;15.27;13.75;;;;;;;;;;5027803;28;20045;-71
2023/05/04 11:47:10;;;;;;;13.85;11.52;;;;;;;;;;5027920;28;20433;-76
2023/05/04 11:49:36;;;;;;;15.57;11.32;;;;;;;;;;5029957;28;20029;-71
2023/05/04 11:52:08;;;;;;;13.48;11.77;;;;;;;;;;5030571;28;20385;-72
2023/05/04 11:54:33;;;;;;;13.30;11.90;;;;;;;;;;5027705;28;20022;-73
2023/05/04 11:57:02;;;;;;;15.57;12.70;;;;;;;;;;5031897;28;20021;-75
2023/05/04 11:59:27;;;;;;;15.90;11.60;;;;;;;;;;5028552;28;20487;-72
2023/05/04 12:01:53;;;;;;;22.73;20.23;;;;;;;;;;5027525;28;20034;-72
2023/05/04 12:04:18;;;;;;;22.92;20.33;;;;;;;;;;5027749;28;20025;-71
2023/05/04 12:06:45;;;;;;;15.77;12.45;;;;;;;;;;5028778;28;20088;-71
2023/05/04 12:09:10;;;;;;;13.68;11.75;;;;;;;;;;5029357;28;20030;-72
2023/05/04 12:11:37;;;;;;;12.73;11.43;;;;;;;;;;5031694;28;20029;-73
2023/05/04 12:14:09;;;;;;;12.75;11.32;;;;;;;;;;5026895;28;20033;-72
2023/05/04 12:16:35;;;;;;;12.13;10.93;;;;;;;;;;5030758;28;20104;-72
2023/05/04 12:19:03;;;;;;;13.23;11.85;;;;;;;;;;5032377;28;20116;-74
2023/05/04 12:21:29;;;;;;;13.20;11.93;;;;;;;;;;5025639;28;20385;-72
2023/05/04 12:23:55;;;;;;;18.38;13.07;;;;;;;;;;5028204;28;20506;-72
2023/05/04 12:26:20;;;;;;;14.10;12.02;;;;;;;;;;5016282;28;20140;-75
2023/05/04 12:28:46;;;;;;;15.18;13.57;;;;;;;;;;5027222;28;20100;-72
2023/05/04 12:31:11;;;;;;;16.27;13.98;;;;;;;;;;5027251;28;20061;-72
2023/05/04 12:33:36;;;;;;;18.33;16.35;;;;;;;;;;5027418;28;20041;-79
2023/05/04 12:36:04;;;;;;;14.88;13.48;;;;;;;;;;5026506;28;20356;-72
2023/05/04 12:38:29;;;;;;;16.65;12.68;;;;;;;;;;5025934;28;20033;-72
2023/05/04 12:40:57;;;;;;;13.63;12.23;;;;;;;;;;5028799;28;20530;-71
2023/05/04 12:43:23;;;;;;;15.52;12.18;;;;;;;;;;5028024;28;20025;-74
2023/05/04 12:45:49;;;;;;;14.23;12.73;;;;;;;;;;5015552;28;20025;-72
2023/05/04 12:48:14;;;;;;;17.38;13.77;;;;;;;;;;5027316;28;20040;-72
2023/05/04 12:50:42;;;;;;;16.15;13.60;;;;;;;;;;5027150;28;20089;-75
2023/05/04 12:53:08;;;;;;;17.10;13.85;;;;;;;;;;5026665;28;20041;-73
2023/05/04 12:55:33;;;;;;;17.77;15.40;;;;;;;;;;5025187;28;20025;-72
2023/05/04 12:57:58;;;;;;;19.65;15.00;;;;;;;;;;5025878;28;20047;-71
2023/05/04 13:00:24;;;;;;;16.52;14.60;;;;;;;;;;5027510;28;20032;-71
2023/05/04 13:02:49;;;;;;;16.80;13.13;;;;;;;;;;5025562;28;20035;-72
2023/05/04 13:05:17;;;;;;;13.02;11.82;;;;;;;;;;5027360;28;20088;-73
2023/05/04 13:07:42;;;;;;;15.23;13.70;;;;;;;;;;5025167;28;20044;-71
2023/05/04 13:10:08;;;;;;;16.98;14.70;;;;;;;;;;5029071;28;20041;-75
2023/05/04 13:12:33;;;;;;;15.75;14.30;;;;;;;;;;5019944;28;20037;-72
2023/05/04 13:14:59;;;;;;;16.42;14.70;;;;;;;;;;5018263;28;20037;-73
2023/05/04 13:17:26;;;;;;;16.92;15.32;;;;;;;;;;5024832;28;20087;-71
2023/05/04 13:19:51;;;;;;;19.40;13.32;;;;;;;;;;5029218;28;20423;-73
2023/05/04 13:22:17;;;;;;;23.15;14.63;;;;;;;;;;5021447;28;20111;-73
2023/05/04 13:24:42;;;;;;;14.27;12.77;;;;;;;;;;5029390;28;20036;-72
2023/05/04 13:27:07;;;;;;;24.83;22.33;;;;;;;;;;5026294;28;20033;-72
2023/05/04 13:29:33;;;;;;;20.02;13.52;;;;;;;;;;5013484;28;20064;-71
2023/05/04 13:31:58;;;;;;;13.13;11.85;;;;;;;;;;5026696;28;21230;-73
2023/05/04 13:34:24;;;;;;;23.42;20.17;;;;;;;;;;5027557;28;20025;-72
2023/05/04 13:36:49;;;;;;;31.88;24.92;;;;;;;;;;5029776;28;20082;-72
2023/05/04 13:39:15;;;;;;;37.30;29.10;;;;;;;;;;5005964;28;20136;-73
2023/05/04 13:41:40;;;;;;;67.68;56.72;;;;;;;;;;5026673;28;20112;-71
2023/05/04 13:44:06;;;;;;;78.63;66.25;;;;;;;;;;5028384;28;20029;-73
2023/05/04 13:46:31;;;;;;;26.13;23.40;;;;;;;;;;5014709;28;20033;-72
2023/05/04 13:48:56;;;;;;;17.35;15.40;;;;;;;;;;5027608;28;20347;-71
2023/05/04 13:51:22;;;;;;;15.60;14.10;;;;;;;;;;5027279;28;20036;-71
2023/05/04 13:53:47;;;;;;;18.08;16.27;;;;;;;;;;5026248;28;20048;-71
2023/05/04 13:56:12;;;;;;;18.05;16.08;;;;;;;;;;5018921;28;20478;-75
2023/05/04 13:58:38;;;;;;;24.80;22.38;;;;;;;;;;5021768;28;20029;-71
2023/05/04 14:01:03;;;;;;;26.65;24.05;;;;;;;;;;5020364;28;20043;-71
2023/05/04 14:03:30;;;;;;;21.13;19.10;;;;;;;;;;5022916;28;20115;-75
2023/05/04 14:05:55;;;;;;;24.02;21.73;;;;;;;;;;5023471;28;20017;-71
2023/05/04 14:08:20;;;;;;;30.25;27.30;;;;;;;;;;5019159;28;20034;-75
2023/05/04 14:10:46;;;;;;;27.77;24.63;;;;;;;;;;5016298;28;20029;-71
2023/05/04 14:13:11;;;;;;;33.10;26.92;;;;;;;;;;5009548;28;20135;-71
2023/05/04 14:15:37;;;;;;;25.65;22.90;;;;;;;;;;5026543;28;20023;-71
2023/05/04 14:18:02;;;;;;;23.08;19.23;;;;;;;;;;5024114;28;20030;-71
2023/05/04 14:20:27;;;;;;;22.65;18.75;;;;;;;;;;5029300;28;20490;-71
2023/05/04 14:22:53;;;;;;;43.10;29.98;;;;;;;;;;5028902;28;20116;-73
2023/05/04 14:25:20;;;;;;;26.98;22.88;;;;;;;;;;5031172;28;20061;-71
2023/05/04 14:27:45;;;;;;;28.50;22.02;;;;;;;;;;5025937;28;20036;-71
2023/05/04 14:30:11;;;;;;;16.00;14.50;;;;;;;;;;5024683;28;20037;-71
2023/05/04 14:32:36;;;;;;;26.70;21.30;;;;;;;;;;5025152;28;20110;-71
2023/05/04 14:35:06;;;;;;;27.60;22.52;;;;;;;;;;5026620;28;20443;-71
2023/05/04 14:37:31;;;;;;;30.67;24.63;;;;;;;;;;5027584;28;20024;-71
2023/05/04 14:39:58;;;;;;;20.10;17.60;;;;;;;;;;5024861;28;20022;-73
2023/05/04 14:42:23;;;;;;;25.55;21.55;;;;;;;;;;5021376;28;20045;-71
2023/05/04 14:44:49;;;;;;;27.33;24.55;;;;;;;;;;5021540;28;20052;-74
2023/05/04 14:47:14;;;;;;;25.20;22.50;;;;;;;;;;5020063;28;20135;-70
2023/05/04 14:49:41;;;;;;;27.48;23.30;;;;;;;;;;5022333;28;22641;-72
2023/05/04 14:52:06;;;;;;;30.20;27.17;;;;;;;;;;5019775;28;20036;-72
2023/05/04 14:54:32;;;;;;;27.48;24.67;;;;;;;;;;5019689;28;20029;-71
2023/05/04 14:56:58;;;;;;;32.05;28.90;;;;;;;;;;5017995;28;20101;-71
2023/05/04 14:59:24;;;;;;;23.50;21.10;;;;;;;;;;5017092;28;20045;-72
2023/05/04 15:01:50;;;;;;;20.52;18.40;;;;;;;;;;5020480;28;20456;-73
2023/05/04 15:04:16;;;;;;;22.45;20.17;;;;;;;;;;5021631;28;20036;-71
2023/05/04 15:06:41;;;;;;;21.52;19.33;;;;;;;;;;5020648;28;20026;-72
2023/05/04 15:09:08;;;;;;;30.02;26.83;;;;;;;;;;5021624;28;20025;-71
2023/05/04 15:11:33;;;;;;;22.98;20.67;;;;;;;;;;5020232;28;20026;-71
2023/05/04 15:13:58;;;;;;;20.67;18.58;;;;;;;;;;5019761;28;20037;-74
2023/05/04 15:16:28;;;;;;;23.20;20.65;;;;;;;;;;5022100;28;20026;-71
2023/05/04 15:18:54;;;;;;;20.98;18.85;;;;;;;;;;5020919;28;20344;-73